Waldorf, Maryland
Current Conditions -  °F | °C
As of 6:58 AM on Monday 20 Oct 2014 (Local Time) from KADW Reporting Station
Clear Clear  
Wind Chill: 39°   Ceiling: Unl
Heat Index: 39°   Visibility: 10mi
Dew Point: 38°   Wind: 2mph
Humidity: 96%   Direction: 180°S
Pressure: 30.11"   Gusts: NA
Location:  38.62°N, 76.9°W
Report Text: KADW 201058Z AUTO 18002KT 10SM CLR 04/03 A3011 RMK AO2 SLP204 T00370031 $
Loading
Personal Weather Stations






























Interactive Weather Map
Tropical Storm Tracking
New forecast layout! Learn more

10-Day Weather Forecast

Advertisements
Track Severe Weather on mobile